sensor_id;sensor_type;location;lat;lon;timestamp;pressure;altitude;pressure_sealevel;temperature;humidity
74181;BME280;62544;50.826;14.354;2022-12-07T00:03:44;98921.28;;;2.44;93.48
74181;BME280;62544;50.826;14.354;2022-12-07T00:07:48;98919.22;;;2.42;94.00
74181;BME280;62544;50.826;14.354;2022-12-07T00:11:52;98917.81;;;2.36;95.56
74181;BME280;62544;50.826;14.354;2022-12-07T00:15:59;98916.64;;;2.34;95.44
74181;BME280;62544;50.826;14.354;2022-12-07T00:20:00;98914.84;;;2.37;94.42
74181;BME280;62544;50.826;14.354;2022-12-07T00:24:04;98914.29;;;2.38;95.14
74181;BME280;62544;50.826;14.354;2022-12-07T00:28:11;98913.14;;;2.39;95.24
74181;BME280;62544;50.826;14.354;2022-12-07T00:32:12;98911.92;;;2.42;94.72
74181;BME280;62544;50.826;14.354;2022-12-07T00:36:17;98909.88;;;2.44;94.93
74181;BME280;62544;50.826;14.354;2022-12-07T00:40:20;98907.01;;;2.43;95.48
74181;BME280;62544;50.826;14.354;2022-12-07T00:44:24;98903.48;;;2.42;95.63
74181;BME280;62544;50.826;14.354;2022-12-07T00:48:28;98900.45;;;2.43;95.24
74181;BME280;62544;50.826;14.354;2022-12-07T00:52:32;98899.63;;;2.44;94.71
74181;BME280;62544;50.826;14.354;2022-12-07T00:56:36;98897.51;;;2.43;95.37
74181;BME280;62544;50.826;14.354;2022-12-07T01:00:40;98897.56;;;2.39;96.04
74181;BME280;62544;50.826;14.354;2022-12-07T01:04:44;98899.38;;;2.38;95.94
74181;BME280;62544;50.826;14.354;2022-12-07T01:08:48;98901.83;;;2.36;95.05
74181;BME280;62544;50.826;14.354;2022-12-07T01:12:52;98903.53;;;2.31;93.70
74181;BME280;62544;50.826;14.354;2022-12-07T01:16:56;98904.52;;;2.31;93.06
74181;BME280;62544;50.826;14.354;2022-12-07T01:21:04;98904.77;;;2.33;92.12
74181;BME280;62544;50.826;14.354;2022-12-07T01:25:04;98906.59;;;2.35;91.29
74181;BME280;62544;50.826;14.354;2022-12-07T01:29:08;98906.74;;;2.36;91.74
74181;BME280;62544;50.826;14.354;2022-12-07T01:33:12;98906.00;;;2.40;91.03
74181;BME280;62544;50.826;14.354;2022-12-07T01:37:16;98903.18;;;2.45;90.26
74181;BME280;62544;50.826;14.354;2022-12-07T01:41:20;98899.73;;;2.49;90.42
74181;BME280;62544;50.826;14.354;2022-12-07T01:45:39;98897.44;;;2.51;90.65
74181;BME280;62544;50.826;14.354;2022-12-07T01:49:29;98896.39;;;2.56;90.97
74181;BME280;62544;50.826;14.354;2022-12-07T01:53:32;98895.53;;;2.62;91.86
74181;BME280;62544;50.826;14.354;2022-12-07T01:57:37;98894.84;;;2.64;91.58
74181;BME280;62544;50.826;14.354;2022-12-07T02:01:39;98893.63;;;2.57;89.72
74181;BME280;62544;50.826;14.354;2022-12-07T02:05:43;98892.53;;;2.50;91.66
74181;BME280;62544;50.826;14.354;2022-12-07T02:09:48;98891.60;;;2.44;91.00
74181;BME280;62544;50.826;14.354;2022-12-07T02:13:52;98890.92;;;2.36;90.25
74181;BME280;62544;50.826;14.354;2022-12-07T02:22:01;98887.81;;;2.36;90.48
74181;BME280;62544;50.826;14.354;2022-12-07T02:30:08;98883.65;;;2.43;89.07
74181;BME280;62544;50.826;14.354;2022-12-07T02:34:14;98879.78;;;2.42;89.41
74181;BME280;62544;50.826;14.354;2022-12-07T02:42:23;98873.75;;;2.47;89.91
74181;BME280;62544;50.826;14.354;2022-12-07T02:46:25;98871.60;;;2.46;90.88
74181;BME280;62544;50.826;14.354;2022-12-07T02:50:28;98871.12;;;2.45;92.22
74181;BME280;62544;50.826;14.354;2022-12-07T02:54:32;98869.81;;;2.45;92.15
74181;BME280;62544;50.826;14.354;2022-12-07T03:02:53;98866.77;;;2.47;93.25
74181;BME280;62544;50.826;14.354;2022-12-07T03:06:46;98865.95;;;2.48;92.94
74181;BME280;62544;50.826;14.354;2022-12-07T03:15:02;98859.64;;;2.45;92.05
74181;BME280;62544;50.826;14.354;2022-12-07T03:18:56;98856.33;;;2.37;93.20
74181;BME280;62544;50.826;14.354;2022-12-07T03:23:00;98854.02;;;2.32;92.71
74181;BME280;62544;50.826;14.354;2022-12-07T03:27:07;98852.26;;;2.24;93.63
74181;BME280;62544;50.826;14.354;2022-12-07T03:31:10;98850.92;;;2.12;94.02
74181;BME280;62544;50.826;14.354;2022-12-07T03:35:17;98849.49;;;2.01;93.77
74181;BME280;62544;50.826;14.354;2022-12-07T03:39:36;98848.41;;;1.96;94.16
74181;BME280;62544;50.826;14.354;2022-12-07T03:43:19;98847.36;;;1.98;92.69
74181;BME280;62544;50.826;14.354;2022-12-07T03:47:27;98848.29;;;1.89;94.78
74181;BME280;62544;50.826;14.354;2022-12-07T03:51:36;98847.17;;;1.80;95.07
74181;BME280;62544;50.826;14.354;2022-12-07T03:55:35;98845.04;;;1.76;94.62
74181;BME280;62544;50.826;14.354;2022-12-07T03:59:35;98843.86;;;1.72;92.66
74181;BME280;62544;50.826;14.354;2022-12-07T04:03:39;98842.56;;;1.71;93.25
74181;BME280;62544;50.826;14.354;2022-12-07T04:07:43;98840.68;;;1.74;92.57
74181;BME280;62544;50.826;14.354;2022-12-07T04:11:48;98839.06;;;1.77;93.95
74181;BME280;62544;50.826;14.354;2022-12-07T04:15:51;98837.91;;;1.77;94.14
74181;BME280;62544;50.826;14.354;2022-12-07T04:19:55;98836.61;;;1.79;94.20
74181;BME280;62544;50.826;14.354;2022-12-07T04:23:59;98834.80;;;1.80;94.36
74181;BME280;62544;50.826;14.354;2022-12-07T04:28:03;98832.11;;;1.82;94.26
74181;BME280;62544;50.826;14.354;2022-12-07T04:32:07;98828.20;;;1.83;94.50
74181;BME280;62544;50.826;14.354;2022-12-07T04:36:11;98824.43;;;1.85;94.54
74181;BME280;62544;50.826;14.354;2022-12-07T04:40:15;98821.01;;;1.86;94.20
74181;BME280;62544;50.826;14.354;2022-12-07T04:44:20;98818.13;;;1.87;94.37
74181;BME280;62544;50.826;14.354;2022-12-07T04:48:23;98815.09;;;1.88;94.09
74181;BME280;62544;50.826;14.354;2022-12-07T04:52:27;98812.01;;;1.89;94.07
74181;BME280;62544;50.826;14.354;2022-12-07T04:56:32;98809.94;;;1.88;94.51
74181;BME280;62544;50.826;14.354;2022-12-07T05:00:35;98808.12;;;1.85;94.86
74181;BME280;62544;50.826;14.354;2022-12-07T05:04:39;98805.33;;;1.82;95.24
74181;BME280;62544;50.826;14.354;2022-12-07T05:08:43;98800.34;;;1.82;94.55
74181;BME280;62544;50.826;14.354;2022-12-07T05:12:47;98794.53;;;1.81;94.56
74181;BME280;62544;50.826;14.354;2022-12-07T05:16:51;98790.94;;;1.81;94.40
74181;BME280;62544;50.826;14.354;2022-12-07T05:20:55;98787.39;;;1.80;94.46
74181;BME280;62544;50.826;14.354;2022-12-07T05:24:59;98785.52;;;1.79;94.55
74181;BME280;62544;50.826;14.354;2022-12-07T05:29:03;98782.81;;;1.79;93.96
74181;BME280;62544;50.826;14.354;2022-12-07T05:33:07;98782.81;;;1.80;93.89
74181;BME280;62544;50.826;14.354;2022-12-07T05:37:11;98780.02;;;1.77;94.20
74181;BME280;62544;50.826;14.354;2022-12-07T05:41:16;98777.22;;;1.71;94.25
74181;BME280;62544;50.826;14.354;2022-12-07T05:45:19;98776.28;;;1.64;94.50
74181;BME280;62544;50.826;14.354;2022-12-07T05:49:23;98775.19;;;1.56;94.68
74181;BME280;62544;50.826;14.354;2022-12-07T05:53:27;98774.08;;;1.49;95.25
74181;BME280;62544;50.826;14.354;2022-12-07T05:57:31;98771.83;;;1.43;95.21
74181;BME280;62544;50.826;14.354;2022-12-07T06:01:35;98770.33;;;1.38;94.81
74181;BME280;62544;50.826;14.354;2022-12-07T06:05:39;98768.52;;;1.31;94.50
74181;BME280;62544;50.826;14.354;2022-12-07T06:09:43;98768.28;;;1.23;94.67
74181;BME280;62544;50.826;14.354;2022-12-07T06:13:47;98767.94;;;1.17;95.28
74181;BME280;62544;50.826;14.354;2022-12-07T06:17:51;98766.83;;;1.13;95.56
74181;BME280;62544;50.826;14.354;2022-12-07T06:21:55;98765.03;;;1.13;95.25
74181;BME280;62544;50.826;14.354;2022-12-07T06:25:59;98763.01;;;1.15;94.79
74181;BME280;62544;50.826;14.354;2022-12-07T06:30:04;98760.00;;;1.16;94.98
74181;BME280;62544;50.826;14.354;2022-12-07T06:34:11;98757.20;;;1.18;95.50
74181;BME280;62544;50.826;14.354;2022-12-07T06:38:11;98755.42;;;1.21;95.42
74181;BME280;62544;50.826;14.354;2022-12-07T06:42:15;98754.39;;;1.25;95.29
74181;BME280;62544;50.826;14.354;2022-12-07T06:46:19;98754.00;;;1.30;95.04
74181;BME280;62544;50.826;14.354;2022-12-07T06:50:23;98752.83;;;1.36;94.72
74181;BME280;62544;50.826;14.354;2022-12-07T06:54:27;98750.97;;;1.41;94.62
74181;BME280;62544;50.826;14.354;2022-12-07T06:58:31;98748.30;;;1.46;94.24
74181;BME280;62544;50.826;14.354;2022-12-07T07:02:35;98745.76;;;1.50;94.19
74181;BME280;62544;50.826;14.354;2022-12-07T07:06:39;98744.45;;;1.53;94.16
74181;BME280;62544;50.826;14.354;2022-12-07T07:10:43;98742.83;;;1.55;94.66
74181;BME280;62544;50.826;14.354;2022-12-07T07:14:47;98742.36;;;1.57;94.96
74181;BME280;62544;50.826;14.354;2022-12-07T07:18:51;98742.61;;;1.60;94.41
74181;BME280;62544;50.826;14.354;2022-12-07T07:22:55;98741.96;;;1.62;94.38
74181;BME280;62544;50.826;14.354;2022-12-07T07:26:59;98739.76;;;1.64;94.64
74181;BME280;62544;50.826;14.354;2022-12-07T07:31:03;98739.12;;;1.67;94.44
74181;BME280;62544;50.826;14.354;2022-12-07T07:35:07;98737.39;;;1.68;94.77
74181;BME280;62544;50.826;14.354;2022-12-07T07:39:11;98736.75;;;1.70;94.44
74181;BME280;62544;50.826;14.354;2022-12-07T07:43:15;98738.81;;;1.72;94.84
74181;BME280;62544;50.826;14.354;2022-12-07T07:47:19;98738.31;;;1.75;94.29
74181;BME280;62544;50.826;14.354;2022-12-07T07:51:23;98737.12;;;1.79;93.67
74181;BME280;62544;50.826;14.354;2022-12-07T07:55:27;98736.89;;;1.81;94.34
74181;BME280;62544;50.826;14.354;2022-12-07T07:59:31;98737.05;;;1.83;94.47
74181;BME280;62544;50.826;14.354;2022-12-07T08:03:35;98736.56;;;1.87;94.76
74181;BME280;62544;50.826;14.354;2022-12-07T08:07:39;98736.35;;;1.90;94.08
74181;BME280;62544;50.826;14.354;2022-12-07T08:11:43;98737.98;;;1.94;94.49
74181;BME280;62544;50.826;14.354;2022-12-07T08:15:47;98740.77;;;1.97;93.83
74181;BME280;62544;50.826;14.354;2022-12-07T08:19:51;98743.15;;;1.99;93.91
74181;BME280;62544;50.826;14.354;2022-12-07T08:23:56;98746.19;;;2.01;94.15
74181;BME280;62544;50.826;14.354;2022-12-07T08:28:00;98749.73;;;2.03;93.57
74181;BME280;62544;50.826;14.354;2022-12-07T08:32:03;98752.67;;;2.03;93.13
74181;BME280;62544;50.826;14.354;2022-12-07T08:36:08;98754.86;;;2.02;93.14
74181;BME280;62544;50.826;14.354;2022-12-07T08:40:12;98756.17;;;2.00;93.29
74181;BME280;62544;50.826;14.354;2022-12-07T08:44:15;98757.50;;;1.96;93.88
74181;BME280;62544;50.826;14.354;2022-12-07T08:48:19;98759.78;;;1.93;93.71
74181;BME280;62544;50.826;14.354;2022-12-07T08:52:23;98762.87;;;1.91;93.85
74181;BME280;62544;50.826;14.354;2022-12-07T08:56:27;98764.50;;;1.90;94.13
74181;BME280;62544;50.826;14.354;2022-12-07T09:00:31;98764.92;;;1.92;93.42
74181;BME280;62544;50.826;14.354;2022-12-07T09:04:35;98765.57;;;1.92;93.23
74181;BME280;62544;50.826;14.354;2022-12-07T09:08:41;98766.64;;;1.92;93.74
74181;BME280;62544;50.826;14.354;2022-12-07T09:12:43;98768.29;;;1.93;93.79
74181;BME280;62544;50.826;14.354;2022-12-07T09:16:47;98770.43;;;1.98;92.98
74181;BME280;62544;50.826;14.354;2022-12-07T09:20:51;98769.56;;;2.08;93.22
74181;BME280;62544;50.826;14.354;2022-12-07T09:24:55;98768.70;;;2.25;92.94
74181;BME280;62544;50.826;14.354;2022-12-07T09:28:59;98766.19;;;2.48;91.71
74181;BME280;62544;50.826;14.354;2022-12-07T09:33:03;98764.14;;;2.78;90.21
74181;BME280;62544;50.826;14.354;2022-12-07T09:37:07;98759.92;;;3.09;88.05
74181;BME280;62544;50.826;14.354;2022-12-07T09:41:11;98756.28;;;3.34;87.71
74181;BME280;62544;50.826;14.354;2022-12-07T09:45:17;98753.59;;;3.51;87.04
74181;BME280;62544;50.826;14.354;2022-12-07T09:49:20;98750.44;;;3.60;88.95
74181;BME280;62544;50.826;14.354;2022-12-07T09:53:26;98748.85;;;3.65;88.52
74181;BME280;62544;50.826;14.354;2022-12-07T09:57:31;98746.56;;;3.65;88.73
74181;BME280;62544;50.826;14.354;2022-12-07T10:01:32;98745.65;;;3.67;90.08
74181;BME280;62544;50.826;14.354;2022-12-07T10:05:36;98744.80;;;3.71;90.00
74181;BME280;62544;50.826;14.354;2022-12-07T10:09:39;98742.66;;;3.76;89.54
74181;BME280;62544;50.826;14.354;2022-12-07T10:13:47;98740.26;;;3.81;89.95
74181;BME280;62544;50.826;14.354;2022-12-07T10:17:48;98738.59;;;3.85;89.54
74181;BME280;62544;50.826;14.354;2022-12-07T10:22:01;98736.91;;;3.90;90.07
74181;BME280;62544;50.826;14.354;2022-12-07T10:25:55;98733.69;;;3.96;89.36
74181;BME280;62544;50.826;14.354;2022-12-07T10:29:59;98731.09;;;4.06;89.38
74181;BME280;62544;50.826;14.354;2022-12-07T10:34:03;98728.56;;;4.15;89.23
74181;BME280;62544;50.826;14.354;2022-12-07T10:38:07;98728.67;;;4.24;89.15
74181;BME280;62544;50.826;14.354;2022-12-07T10:42:18;98727.79;;;4.32;88.88
74181;BME280;62544;50.826;14.354;2022-12-07T10:46:35;98727.84;;;4.37;87.09
74181;BME280;62544;50.826;14.354;2022-12-07T10:58:46;98726.06;;;4.23;88.45
74181;BME280;62544;50.826;14.354;2022-12-07T11:06:39;98721.53;;;4.33;86.85
74181;BME280;62544;50.826;14.354;2022-12-07T11:14:56;98712.80;;;5.68;72.18
74181;BME280;62544;50.826;14.354;2022-12-07T11:22:54;98703.03;;;6.64;71.11
74181;BME280;62544;50.826;14.354;2022-12-07T11:31:05;98696.42;;;6.39;77.69
74181;BME280;62544;50.826;14.354;2022-12-07T11:35:07;98693.55;;;6.11;79.07
74181;BME280;62544;50.826;14.354;2022-12-07T11:39:23;98690.10;;;5.83;80.73
74181;BME280;62544;50.826;14.354;2022-12-07T11:43:17;98686.91;;;5.56;79.98
74181;BME280;62544;50.826;14.354;2022-12-07T11:47:34;98684.49;;;5.33;82.28
74181;BME280;62544;50.826;14.354;2022-12-07T11:51:19;98680.81;;;5.15;81.82
74181;BME280;62544;50.826;14.354;2022-12-07T11:59:31;98676.00;;;4.88;81.11
74181;BME280;62544;50.826;14.354;2022-12-07T12:03:33;98673.00;;;4.75;82.16
74181;BME280;62544;50.826;14.354;2022-12-07T12:07:35;98668.27;;;4.69;82.35
74181;BME280;62544;50.826;14.354;2022-12-07T12:12:10;98663.75;;;4.70;80.82
74181;BME280;62544;50.826;14.354;2022-12-07T12:23:56;98648.19;;;4.69;83.45
74181;BME280;62544;50.826;14.354;2022-12-07T12:27:55;98647.53;;;4.61;82.20
74181;BME280;62544;50.826;14.354;2022-12-07T12:32:12;98646.55;;;4.45;83.65
74181;BME280;62544;50.826;14.354;2022-12-07T12:36:19;98645.99;;;4.30;86.24
74181;BME280;62544;50.826;14.354;2022-12-07T12:48:35;98643.39;;;4.06;87.90
74181;BME280;62544;50.826;14.354;2022-12-07T13:00:27;98642.30;;;4.09;88.57
74181;BME280;62544;50.826;14.354;2022-12-07T13:04:34;98639.74;;;4.21;87.98
74181;BME280;62544;50.826;14.354;2022-12-07T13:08:35;98636.83;;;4.35;86.80
74181;BME280;62544;50.826;14.354;2022-12-07T13:12:39;98635.58;;;4.45;86.41
74181;BME280;62544;50.826;14.354;2022-12-07T13:16:43;98633.65;;;4.51;86.79
74181;BME280;62544;50.826;14.354;2022-12-07T13:20:54;98631.90;;;4.52;88.00
74181;BME280;62544;50.826;14.354;2022-12-07T13:24:54;98630.10;;;4.53;88.73
74181;BME280;62544;50.826;14.354;2022-12-07T13:29:13;98628.28;;;4.52;89.01
74181;BME280;62544;50.826;14.354;2022-12-07T13:33:03;98628.55;;;4.50;87.62
74181;BME280;62544;50.826;14.354;2022-12-07T13:37:12;98631.59;;;4.43;88.66
74181;BME280;62544;50.826;14.354;2022-12-07T13:41:14;98634.38;;;4.34;89.02
74181;BME280;62544;50.826;14.354;2022-12-07T13:45:20;98636.07;;;4.17;89.45
74181;BME280;62544;50.826;14.354;2022-12-07T13:49:22;98637.62;;;3.98;90.08
74181;BME280;62544;50.826;14.354;2022-12-07T13:53:19;98641.82;;;3.73;91.36
74181;BME280;62544;50.826;14.354;2022-12-07T13:57:23;98647.02;;;3.51;91.66
74181;BME280;62544;50.826;14.354;2022-12-07T14:01:27;98649.55;;;3.33;92.04
74181;BME280;62544;50.826;14.354;2022-12-07T14:05:32;98651.65;;;3.21;92.20
74181;BME280;62544;50.826;14.354;2022-12-07T14:09:35;98652.92;;;3.15;91.86
74181;BME280;62544;50.826;14.354;2022-12-07T14:17:52;98656.12;;;3.13;92.30
74181;BME280;62544;50.826;14.354;2022-12-07T14:21:47;98654.38;;;3.16;92.13
74181;BME280;62544;50.826;14.354;2022-12-07T14:25:52;98651.73;;;3.21;91.14
74181;BME280;62544;50.826;14.354;2022-12-07T14:29:55;98650.09;;;3.22;91.74
74181;BME280;62544;50.826;14.354;2022-12-07T14:33:59;98648.13;;;3.22;92.30
74181;BME280;62544;50.826;14.354;2022-12-07T14:38:09;98645.26;;;3.21;92.38
74181;BME280;62544;50.826;14.354;2022-12-07T14:42:13;98642.22;;;3.22;92.20
74181;BME280;62544;50.826;14.354;2022-12-07T14:46:13;98639.03;;;3.21;92.23
74181;BME280;62544;50.826;14.354;2022-12-07T14:50:15;98636.72;;;3.18;92.78
74181;BME280;62544;50.826;14.354;2022-12-07T14:54:19;98633.78;;;3.16;92.82
74181;BME280;62544;50.826;14.354;2022-12-07T14:58:23;98636.10;;;3.09;94.50
74181;BME280;62544;50.826;14.354;2022-12-07T15:02:26;98642.63;;;2.94;96.29
74181;BME280;62544;50.826;14.354;2022-12-07T15:06:31;98645.95;;;2.79;96.16
74181;BME280;62544;50.826;14.354;2022-12-07T15:10:34;98649.42;;;2.66;96.53
74181;BME280;62544;50.826;14.354;2022-12-07T15:14:39;98653.53;;;2.59;96.06
74181;BME280;62544;50.826;14.354;2022-12-07T15:18:43;98655.41;;;2.57;94.85
74181;BME280;62544;50.826;14.354;2022-12-07T15:22:47;98656.81;;;2.57;94.47
74181;BME280;62544;50.826;14.354;2022-12-07T15:26:51;98656.83;;;2.55;94.26
74181;BME280;62544;50.826;14.354;2022-12-07T15:30:55;98656.09;;;2.52;94.80
74181;BME280;62544;50.826;14.354;2022-12-07T15:34:59;98654.69;;;2.46;96.09
74181;BME280;62544;50.826;14.354;2022-12-07T15:39:03;98652.72;;;2.44;95.43
74181;BME280;62544;50.826;14.354;2022-12-07T15:43:08;98650.51;;;2.44;95.29
74181;BME280;62544;50.826;14.354;2022-12-07T15:47:10;98648.89;;;2.43;94.94
74181;BME280;62544;50.826;14.354;2022-12-07T15:51:15;98647.81;;;2.41;95.02
74181;BME280;62544;50.826;14.354;2022-12-07T15:55:19;98646.81;;;2.40;94.61
74181;BME280;62544;50.826;14.354;2022-12-07T15:59:23;98645.76;;;2.39;94.15
74181;BME280;62544;50.826;14.354;2022-12-07T16:03:27;98644.53;;;2.35;94.26
74181;BME280;62544;50.826;14.354;2022-12-07T16:07:30;98644.30;;;2.31;93.73
74181;BME280;62544;50.826;14.354;2022-12-07T16:11:35;98645.43;;;2.26;94.65
74181;BME280;62544;50.826;14.354;2022-12-07T16:15:39;98645.45;;;2.23;94.41
74181;BME280;62544;50.826;14.354;2022-12-07T16:19:42;98645.68;;;2.21;93.93
74181;BME280;62544;50.826;14.354;2022-12-07T16:23:46;98646.09;;;2.19;94.45
74181;BME280;62544;50.826;14.354;2022-12-07T16:27:51;98645.12;;;2.15;94.98
74181;BME280;62544;50.826;14.354;2022-12-07T16:31:54;98645.20;;;2.15;94.74
74181;BME280;62544;50.826;14.354;2022-12-07T16:35:58;98645.42;;;2.15;94.46
74181;BME280;62544;50.826;14.354;2022-12-07T16:40:03;98645.67;;;2.15;94.76
74181;BME280;62544;50.826;14.354;2022-12-07T16:44:07;98645.26;;;2.14;95.50
74181;BME280;62544;50.826;14.354;2022-12-07T16:48:10;98645.68;;;2.14;95.92
74181;BME280;62544;50.826;14.354;2022-12-07T16:52:14;98646.09;;;2.17;96.72
74181;BME280;62544;50.826;14.354;2022-12-07T16:56:18;98647.08;;;2.19;96.76
74181;BME280;62544;50.826;14.354;2022-12-07T17:00:23;98648.22;;;2.22;96.53
74181;BME280;62544;50.826;14.354;2022-12-07T17:04:26;98647.97;;;2.25;96.37
74181;BME280;62544;50.826;14.354;2022-12-07T17:08:30;98647.82;;;2.29;95.87
74181;BME280;62544;50.826;14.354;2022-12-07T17:12:34;98649.04;;;2.32;95.97
74181;BME280;62544;50.826;14.354;2022-12-07T17:16:39;98651.67;;;2.34;95.98
74181;BME280;62544;50.826;14.354;2022-12-07T17:20:43;98653.88;;;2.31;97.41
74181;BME280;62544;50.826;14.354;2022-12-07T17:24:47;98655.86;;;2.30;96.70
74181;BME280;62544;50.826;14.354;2022-12-07T17:28:50;98656.84;;;2.31;96.41
74181;BME280;62544;50.826;14.354;2022-12-07T17:32:55;98656.75;;;2.31;96.99
74181;BME280;62544;50.826;14.354;2022-12-07T17:36:58;98657.92;;;2.35;96.77
74181;BME280;62544;50.826;14.354;2022-12-07T17:41:21;98658.14;;;2.38;97.26
74181;BME280;62544;50.826;14.354;2022-12-07T17:45:07;98656.81;;;2.40;97.60
74181;BME280;62544;50.826;14.354;2022-12-07T17:49:11;98655.03;;;2.40;98.15
74181;BME280;62544;50.826;14.354;2022-12-07T17:53:14;98653.47;;;2.41;98.17
74181;BME280;62544;50.826;14.354;2022-12-07T17:57:18;98654.36;;;2.42;98.02
74181;BME280;62544;50.826;14.354;2022-12-07T18:01:23;98656.68;;;2.42;98.23
74181;BME280;62544;50.826;14.354;2022-12-07T18:05:27;98659.60;;;2.40;97.97
74181;BME280;62544;50.826;14.354;2022-12-07T18:09:30;98663.05;;;2.34;96.53
74181;BME280;62544;50.826;14.354;2022-12-07T18:13:35;98666.67;;;2.29;96.34
74181;BME280;62544;50.826;14.354;2022-12-07T18:17:38;98668.79;;;2.22;96.09
74181;BME280;62544;50.826;14.354;2022-12-07T18:21:43;98669.62;;;2.18;96.30
74181;BME280;62544;50.826;14.354;2022-12-07T18:25:49;98671.58;;;2.16;96.02
74181;BME280;62544;50.826;14.354;2022-12-07T18:29:53;98674.61;;;2.16;95.21
74181;BME280;62544;50.826;14.354;2022-12-07T18:33:55;98678.20;;;2.15;95.07
74181;BME280;62544;50.826;14.354;2022-12-07T18:38:01;98679.53;;;2.13;95.30
74181;BME280;62544;50.826;14.354;2022-12-07T18:42:03;98680.17;;;2.12;95.02
74181;BME280;62544;50.826;14.354;2022-12-07T18:46:10;98679.91;;;2.10;95.49
74181;BME280;62544;50.826;14.354;2022-12-07T18:50:10;98680.17;;;2.09;95.57
74181;BME280;62544;50.826;14.354;2022-12-07T18:54:14;98679.86;;;2.08;95.63
74181;BME280;62544;50.826;14.354;2022-12-07T18:58:18;98678.71;;;2.08;95.61
74181;BME280;62544;50.826;14.354;2022-12-07T19:02:22;98677.31;;;2.06;96.14
74181;BME280;62544;50.826;14.354;2022-12-07T19:06:28;98675.66;;;2.05;95.67
74181;BME280;62544;50.826;14.354;2022-12-07T19:10:33;98673.85;;;2.04;95.24
74181;BME280;62544;50.826;14.354;2022-12-07T19:14:36;98672.30;;;2.04;95.61
74181;BME280;62544;50.826;14.354;2022-12-07T19:18:38;98670.50;;;2.04;95.01
74181;BME280;62544;50.826;14.354;2022-12-07T19:22:42;98670.00;;;2.05;94.50
74181;BME280;62544;50.826;14.354;2022-12-07T19:26:49;98670.67;;;2.04;94.65
74181;BME280;62544;50.826;14.354;2022-12-07T19:30:52;98671.14;;;2.02;94.60
74181;BME280;62544;50.826;14.354;2022-12-07T19:34:55;98671.23;;;1.99;95.38
74181;BME280;62544;50.826;14.354;2022-12-07T19:38:58;98673.29;;;1.98;95.46
74181;BME280;62544;50.826;14.354;2022-12-07T19:43:02;98675.33;;;1.96;95.95
74181;BME280;62544;50.826;14.354;2022-12-07T19:47:07;98675.98;;;1.91;97.38
74181;BME280;62544;50.826;14.354;2022-12-07T19:51:12;98676.14;;;1.86;97.10
74181;BME280;62544;50.826;14.354;2022-12-07T19:55:14;98675.22;;;1.81;97.35
74181;BME280;62544;50.826;14.354;2022-12-07T19:59:20;98675.86;;;1.82;96.94
74181;BME280;62544;50.826;14.354;2022-12-07T20:03:22;98676.28;;;1.85;96.63
74181;BME280;62544;50.826;14.354;2022-12-07T20:07:26;98676.86;;;1.87;96.82
74181;BME280;62544;50.826;14.354;2022-12-07T20:11:30;98676.37;;;1.90;96.05
74181;BME280;62544;50.826;14.354;2022-12-07T20:15:36;98674.74;;;1.91;95.70
74181;BME280;62544;50.826;14.354;2022-12-07T20:19:38;98673.33;;;1.93;95.49
74181;BME280;62544;50.826;14.354;2022-12-07T20:23:43;98672.28;;;1.92;96.24
74181;BME280;62544;50.826;14.354;2022-12-07T20:27:46;98670.08;;;1.91;96.42
74181;BME280;62544;50.826;14.354;2022-12-07T20:31:52;98666.86;;;1.88;96.57
74181;BME280;62544;50.826;14.354;2022-12-07T20:36:00;98664.83;;;1.86;96.07
74181;BME280;62544;50.826;14.354;2022-12-07T20:39:58;98662.11;;;1.82;96.59
74181;BME280;62544;50.826;14.354;2022-12-07T20:44:03;98660.14;;;1.80;96.73
74181;BME280;62544;50.826;14.354;2022-12-07T20:48:06;98659.00;;;1.76;97.10
74181;BME280;62544;50.826;14.354;2022-12-07T20:52:10;98657.50;;;1.73;97.31
74181;BME280;62544;50.826;14.354;2022-12-07T20:56:21;98656.59;;;1.73;97.00
74181;BME280;62544;50.826;14.354;2022-12-07T21:00:19;98655.88;;;1.74;96.80
74181;BME280;62544;50.826;14.354;2022-12-07T21:04:22;98654.32;;;1.75;96.23
74181;BME280;62544;50.826;14.354;2022-12-07T21:08:26;98653.44;;;1.76;96.17
74181;BME280;62544;50.826;14.354;2022-12-07T21:12:30;98654.15;;;1.78;95.19
74181;BME280;62544;50.826;14.354;2022-12-07T21:16:34;98653.59;;;1.77;96.25
74181;BME280;62544;50.826;14.354;2022-12-07T21:20:38;98653.27;;;1.76;96.04
74181;BME280;62544;50.826;14.354;2022-12-07T21:24:42;98652.67;;;1.75;96.62
74181;BME280;62544;50.826;14.354;2022-12-07T21:28:47;98651.12;;;1.74;96.56
74181;BME280;62544;50.826;14.354;2022-12-07T21:32:50;98650.45;;;1.72;96.88
74181;BME280;62544;50.826;14.354;2022-12-07T21:36:54;98650.39;;;1.72;96.69
74181;BME280;62544;50.826;14.354;2022-12-07T21:40:58;98650.54;;;1.73;96.28
74181;BME280;62544;50.826;14.354;2022-12-07T21:45:02;98650.12;;;1.73;95.93
74181;BME280;62544;50.826;14.354;2022-12-07T21:49:11;98650.62;;;1.72;95.90
74181;BME280;62544;50.826;14.354;2022-12-07T21:53:10;98651.37;;;1.71;96.10
74181;BME280;62544;50.826;14.354;2022-12-07T21:57:17;98651.53;;;1.69;96.02
74181;BME280;62544;50.826;14.354;2022-12-07T22:01:22;98650.86;;;1.67;96.17
74181;BME280;62544;50.826;14.354;2022-12-07T22:05:25;98650.69;;;1.65;96.21
74181;BME280;62544;50.826;14.354;2022-12-07T22:09:29;98650.53;;;1.61;96.12
74181;BME280;62544;50.826;14.354;2022-12-07T22:13:30;98649.45;;;1.57;96.57
74181;BME280;62544;50.826;14.354;2022-12-07T22:17:34;98648.80;;;1.54;96.41
74181;BME280;62544;50.826;14.354;2022-12-07T22:21:38;98648.55;;;1.53;95.93
74181;BME280;62544;50.826;14.354;2022-12-07T22:25:42;98647.89;;;1.54;95.72
74181;BME280;62544;50.826;14.354;2022-12-07T22:29:46;98647.49;;;1.54;96.10
74181;BME280;62544;50.826;14.354;2022-12-07T22:33:50;98647.80;;;1.52;96.39
74181;BME280;62544;50.826;14.354;2022-12-07T22:37:54;98646.66;;;1.52;96.19
74181;BME280;62544;50.826;14.354;2022-12-07T22:41:58;98646.41;;;1.52;96.13
74181;BME280;62544;50.826;14.354;2022-12-07T22:46:02;98646.75;;;1.54;96.14
74181;BME280;62544;50.826;14.354;2022-12-07T22:50:07;98645.53;;;1.56;95.54